Time;durP1;ratioP1;P1;durP2;ratioP2;P2;SDS_P1;SDS_P2;PMS_P1;PMS_P2;Temp;Humidity;BMP_temperature;BMP_pressure;BME280_temperature;BME280_humidity;BME280_pressure;Samples;Min_cycle;Max_cycle;Signal;HPM_P1;HPM_P2
2021/05/31 00:02:18;;;;;;;3.10;2.80;;;;;;;;;;5092245;28;20448;-70
2021/05/31 00:04:46;;;;;;;2.97;2.67;;;;;;;;;;5092640;28;20436;-70
2021/05/31 00:07:13;;;;;;;4.50;2.97;;;;;;;;;;5092110;28;20527;-70
2021/05/31 00:09:41;;;;;;;3.50;2.73;;;;;;;;;;5092502;28;20762;-70
2021/05/31 00:12:09;;;;;;;3.03;2.40;;;;;;;;;;5092642;28;20453;-68
2021/05/31 00:14:36;;;;;;;3.57;2.77;;;;;;;;;;5092608;28;20480;-71
2021/05/31 00:17:02;;;;;;;3.57;2.43;;;;;;;;;;5092004;28;20489;-71
2021/05/31 00:19:29;;;;;;;3.20;2.40;;;;;;;;;;5091668;28;20499;-71
2021/05/31 00:21:57;;;;;;;3.00;2.20;;;;;;;;;;5091947;28;20499;-70
2021/05/31 00:24:23;;;;;;;3.90;3.03;;;;;;;;;;5091980;28;20439;-71
2021/05/31 00:26:50;;;;;;;2.93;2.73;;;;;;;;;;5092124;28;20510;-71
2021/05/31 00:29:20;;;;;;;4.10;2.60;;;;;;;;;;5091044;28;20531;-70
2021/05/31 00:31:47;;;;;;;2.93;2.43;;;;;;;;;;5092339;28;20531;-71
2021/05/31 00:34:14;;;;;;;3.40;2.87;;;;;;;;;;5092139;28;20493;-71
2021/05/31 00:36:41;;;;;;;3.30;2.63;;;;;;;;;;5092395;28;20892;-71
2021/05/31 00:39:09;;;;;;;3.43;2.30;;;;;;;;;;5091395;28;20450;-67
2021/05/31 00:41:36;;;;;;;4.10;2.80;;;;;;;;;;5092072;28;20515;-71
2021/05/31 00:44:02;;;;;;;4.00;2.93;;;;;;;;;;5091970;28;20448;-70
2021/05/31 00:46:29;;;;;;;3.40;2.47;;;;;;;;;;5091044;28;20929;-70
2021/05/31 00:48:56;;;;;;;4.03;3.27;;;;;;;;;;5091289;28;20947;-70
2021/05/31 00:51:22;;;;;;;6.27;2.87;;;;;;;;;;5091365;28;20528;-71
2021/05/31 00:53:49;;;;;;;3.50;2.57;;;;;;;;;;5091337;28;20472;-71
2021/05/31 00:56:16;;;;;;;3.57;2.63;;;;;;;;;;5091406;28;20445;-71
2021/05/31 00:58:44;;;;;;;3.83;2.20;;;;;;;;;;5091246;28;21125;-71
2021/05/31 01:01:10;;;;;;;4.23;3.10;;;;;;;;;;5091044;28;20821;-70
2021/05/31 01:03:37;;;;;;;4.30;2.50;;;;;;;;;;5091393;28;20472;-71
2021/05/31 01:06:06;;;;;;;2.90;2.10;;;;;;;;;;5091911;28;20444;-71
2021/05/31 01:08:36;;;;;;;3.33;2.63;;;;;;;;;;5091309;28;20564;-71
2021/05/31 01:11:04;;;;;;;5.00;2.53;;;;;;;;;;5091688;28;20527;-71
2021/05/31 01:13:37;;;;;;;4.30;2.63;;;;;;;;;;5090996;28;20441;-71
2021/05/31 01:16:09;;;;;;;3.07;2.70;;;;;;;;;;5091758;28;20460;-70
2021/05/31 01:18:39;;;;;;;3.23;2.17;;;;;;;;;;5091461;28;20444;-71
2021/05/31 01:21:20;;;;;;;4.77;2.77;;;;;;;;;;5091561;28;20469;-70
2021/05/31 01:23:48;;;;;;;4.80;2.77;;;;;;;;;;5091529;28;20499;-71
2021/05/31 01:26:17;;;;;;;2.63;2.37;;;;;;;;;;5090888;28;20443;-70
2021/05/31 01:29:02;;;;;;;3.57;2.70;;;;;;;;;;5090562;28;20842;-71
2021/05/31 01:31:38;;;;;;;4.00;2.60;;;;;;;;;;5090765;28;20801;-70
2021/05/31 01:34:06;;;;;;;2.70;1.90;;;;;;;;;;5091209;28;20823;-70
2021/05/31 01:36:34;;;;;;;3.53;2.10;;;;;;;;;;5090722;28;21004;-71
2021/05/31 01:39:01;;;;;;;3.17;2.50;;;;;;;;;;5091047;28;20440;-71
2021/05/31 01:41:28;;;;;;;2.67;2.40;;;;;;;;;;5090279;28;21112;-71
2021/05/31 01:43:54;;;;;;;2.73;2.30;;;;;;;;;;5091367;28;20527;-71
2021/05/31 01:46:23;;;;;;;2.90;2.50;;;;;;;;;;5090616;28;20852;-71
2021/05/31 01:48:52;;;;;;;3.23;2.67;;;;;;;;;;5090882;28;20445;-71
2021/05/31 01:51:20;;;;;;;2.10;1.90;;;;;;;;;;5090431;28;20547;-71
2021/05/31 01:53:47;;;;;;;2.40;2.20;;;;;;;;;;5091227;28;20504;-71
2021/05/31 01:56:15;;;;;;;4.77;2.60;;;13.50;99.90;;;;;;5090705;28;20440;-70
2021/05/31 01:58:42;;;;;;;4.27;2.53;;;9.80;99.90;;;;;;5090601;28;20448;-70
2021/05/31 02:01:10;;;;;;;3.70;2.03;;;9.50;1.00;;;;;;5090365;28;20487;-70
2021/05/31 02:03:38;;;;;;;5.13;2.17;;;9.30;1.00;;;;;;5090502;28;20474;-70
2021/05/31 02:06:05;;;;;;;3.23;2.50;;;9.40;99.90;;;;;;5090736;28;20433;-70
2021/05/31 02:08:31;;;;;;;2.83;2.23;;;9.30;75.00;;;;;;5089858;28;20456;-70
2021/05/31 02:11:15;;;;;;;4.07;2.43;;;9.50;1.00;;;;;;5091046;28;20532;-71
2021/05/31 02:13:44;;;;;;;2.70;2.50;;;9.30;1.00;;;;;;5091150;28;20526;-70
2021/05/31 02:16:19;;;;;;;2.53;1.90;;;9.10;1.00;;;;;;5090564;28;20530;-71
2021/05/31 02:18:51;;;;;;;3.50;2.80;;;9.10;1.00;;;;;;5090608;28;20447;-70
2021/05/31 02:21:19;;;;;;;2.90;1.87;;;9.20;1.00;;;;;;5089968;28;20968;-71
2021/05/31 02:23:46;;;;;;;3.20;2.10;;;9.40;99.90;;;;;;5090737;28;20980;-70
2021/05/31 02:26:16;;;;;;;6.20;2.70;;;9.70;66.60;;;;;;5090558;28;20480;-70
2021/05/31 02:28:44;;;;;;;4.33;2.63;;;9.80;99.90;;;;;;5090932;28;20448;-70
2021/05/31 02:31:10;;;;;;;3.03;2.00;;;9.50;99.90;;;;;;5090720;28;20444;-71
2021/05/31 02:33:39;;;;;;;3.53;2.87;;;9.30;1.00;;;;;;5091252;28;20479;-70
2021/05/31 02:36:07;;;;;;;2.40;2.20;;;9.10;1.00;;;;;;5090654;28;21022;-71
2021/05/31 02:38:34;;;;;;;3.67;2.40;;;9.00;1.00;;;;;;5090816;28;20542;-70
2021/05/31 02:41:00;;;;;;;4.03;2.83;;;8.90;1.00;;;;;;5093508;28;20472;-71
2021/05/31 02:43:26;;;;;;;3.13;1.97;;;8.80;1.00;;;;;;5093965;28;20829;-70
2021/05/31 02:45:54;;;;;;;1.87;1.77;;;8.70;1.00;;;;;;5094325;28;20806;-70
2021/05/31 02:48:22;;;;;;;4.03;2.37;;;8.90;91.40;;;;;;5098145;28;20444;-70
2021/05/31 02:50:48;;;;;;;2.30;2.00;;;9.20;99.90;;;;;;5099945;28;20456;-71
2021/05/31 02:53:16;;;;;;;3.10;2.50;;;9.30;43.40;;;;;;5093582;28;20535;-70
2021/05/31 02:55:43;;;;;;;3.13;2.63;;;9.10;99.90;;;;;;5094346;28;20881;-70
2021/05/31 02:58:11;;;;;;;5.93;2.67;;;9.00;1.00;;;;;;5093815;28;20467;-71
2021/05/31 03:00:37;;;;;;;4.07;2.63;;;9.00;99.90;;;;;;5094083;28;20494;-71
2021/05/31 03:03:04;;;;;;;3.60;2.37;;;9.10;1.00;;;;;;5094252;28;20533;-71
2021/05/31 03:05:32;;;;;;;3.10;2.37;;;9.00;1.00;;;;;;5093385;28;20448;-71
2021/05/31 03:07:59;;;;;;;2.37;2.03;;;8.80;1.00;;;;;;5093850;28;20448;-70
2021/05/31 03:10:28;;;;;;;2.57;2.37;;;8.80;99.90;;;;;;5093110;28;20460;-71
2021/05/31 03:12:54;;;;;;;5.30;2.20;;;8.60;1.00;;;;;;5093811;28;20440;-71
2021/05/31 03:15:22;;;;;;;2.80;2.10;;;8.60;1.00;;;;;;5093278;28;20443;-71
2021/05/31 03:17:49;;;;;;;3.33;2.57;;;8.50;1.00;;;;;;5093349;28;20531;-71
2021/05/31 03:20:17;;;;;;;4.40;2.70;;;8.50;99.90;;;;;;5092679;28;20476;-70
2021/05/31 03:22:43;;;;;;;3.63;2.27;;;8.60;99.90;;;;;;5093840;28;20913;-71
2021/05/31 03:25:11;;;;;;;4.27;2.63;;;8.70;1.00;;;;;;5093185;28;20770;-71
2021/05/31 03:27:40;;;;;;;3.97;2.60;;;8.50;1.00;;;;;;5093205;28;20932;-70
2021/05/31 03:30:09;;;;;;;3.80;2.37;;;8.30;99.90;;;;;;5093071;28;20465;-71
2021/05/31 03:32:35;;;;;;;4.17;2.97;;;8.40;99.90;;;;;;5093303;28;20449;-71
2021/05/31 03:35:03;;;;;;;4.37;2.73;;;8.50;99.90;;;;;;5093356;28;20439;-70
2021/05/31 03:37:29;;;;;;;6.37;3.17;;;8.40;1.00;;;;;;5092719;28;20436;-71
2021/05/31 03:39:55;;;;;;;2.50;2.30;;;8.50;99.90;;;;;;5092751;28;20447;-71
2021/05/31 03:42:22;;;;;;;2.90;2.20;;;8.30;99.90;;;;;;5092399;28;20925;-71
2021/05/31 03:44:50;;;;;;;3.50;2.77;;;8.50;99.90;;;;;;5093101;28;20443;-71
2021/05/31 03:47:16;;;;;;;2.97;2.50;;;8.50;99.90;;;;;;5092216;28;20560;-70
2021/05/31 03:49:42;;;;;;;4.57;2.83;;;8.60;1.00;;;;;;5092487;28;20943;-71
2021/05/31 03:52:09;;;;;;;3.33;3.03;;;8.30;1.00;;;;;;5091972;28;20448;-69
2021/05/31 03:54:35;;;;;;;4.57;2.70;;;8.10;99.90;;;;;;5092669;28;20480;-71
2021/05/31 03:57:02;;;;;;;2.70;2.50;;;8.30;99.90;;;;;;5092871;28;20531;-71
2021/05/31 03:59:29;;;;;;;6.10;3.00;;;8.40;99.90;;;;;;5091451;28;20531;-71
2021/05/31 04:01:57;;;;;;;4.20;2.47;;;8.20;99.90;;;;;;5092833;28;20468;-71
2021/05/31 04:04:23;;;;;;;3.67;2.70;;;8.50;99.90;;;;;;5092341;28;20797;-71
2021/05/31 04:07:22;;;;;;;2.37;2.13;;;8.40;99.90;;;;;;5092478;28;20528;-71
2021/05/31 04:12:28;;;;;;;6.30;2.80;;;8.60;1.00;;;;;;5091974;28;20488;-71
2021/05/31 04:14:55;;;;;;;3.50;2.60;;;8.60;1.00;;;;;;5092531;28;20456;-70
2021/05/31 04:17:22;;;;;;;3.57;2.70;;;8.40;12.50;;;;;;5092008;28;20436;-71
2021/05/31 04:19:49;;;;;;;3.40;2.23;;;8.60;99.90;;;;;;5092088;28;20465;-71
2021/05/31 04:22:15;;;;;;;2.83;2.50;;;8.40;99.90;;;;;;5091581;28;20496;-70
2021/05/31 04:24:41;;;;;;;4.70;3.00;;;8.50;99.90;;;;;;5092692;28;20441;-71
2021/05/31 04:27:08;;;;;;;3.87;2.30;;;8.60;99.90;;;;;;5091698;28;20573;-68
2021/05/31 04:29:34;;;;;;;4.17;2.97;;;8.80;99.90;;;;;;5091712;28;20453;-71
2021/05/31 04:32:02;;;;;;;4.03;2.47;;;8.80;1.00;;;;;;5092597;28;20449;-71
2021/05/31 04:34:30;;;;;;;5.30;2.80;;;8.70;1.00;;;;;;5091700;28;20456;-71
2021/05/31 04:36:56;;;;;;;3.50;2.40;;;8.80;1.00;;;;;;5092228;28;20445;-71
2021/05/31 04:39:23;;;;;;;4.60;2.87;;;8.70;1.00;;;;;;5090789;28;20905;-71
2021/05/31 04:41:49;;;;;;;4.90;2.47;;;8.90;1.00;;;;;;5091696;28;20504;-71
2021/05/31 04:44:15;;;;;;;4.80;2.73;;;9.00;99.90;;;;;;5091103;28;20526;-70
2021/05/31 04:46:42;;;;;;;3.90;2.70;;;9.10;1.00;;;;;;5092070;28;20447;-71
2021/05/31 04:49:08;;;;;;;2.80;2.50;;;9.30;99.90;;;;;;5090925;28;20437;-70
2021/05/31 04:51:38;;;;;;;4.40;3.80;;;9.40;1.60;;;;;;5091617;28;20551;-70
2021/05/31 04:54:05;;;;;;;3.90;2.23;;;9.70;1.00;;;;;;5091667;28;20476;-71
2021/05/31 04:56:31;;;;;;;3.10;2.80;;;9.80;2.20;;;;;;5091092;28;20527;-71
2021/05/31 04:58:58;;;;;;;4.33;2.80;;;9.80;99.90;;;;;;5090991;28;20524;-70
2021/05/31 05:01:24;;;;;;;2.93;2.63;;;10.00;99.90;;;;;;5090782;28;20516;-71
2021/05/31 05:03:50;;;;;;;3.30;2.90;;;10.20;1.00;;;;;;5090449;28;20441;-71
2021/05/31 05:06:17;;;;;;;8.17;3.10;;;10.20;1.00;;;;;;5091138;28;20536;-71
2021/05/31 05:08:45;;;;;;;4.20;2.80;;;10.50;99.90;;;;;;5091476;28;20444;-71
2021/05/31 05:11:11;;;;;;;3.70;2.77;;;10.50;1.00;;;;;;5091125;28;20798;-71
2021/05/31 05:13:37;;;;;;;3.17;2.57;;;10.70;1.00;;;;;;5091582;28;20543;-71
2021/05/31 05:16:04;;;;;;;2.50;2.30;;;10.70;1.00;;;;;;5091381;28;20444;-71
2021/05/31 05:18:31;;;;;;;3.27;2.70;;;10.70;1.00;;;;;;5090687;28;20436;-71
2021/05/31 05:20:59;;;;;;;6.10;3.00;;;;;;;;;;5091445;28;20476;-71
2021/05/31 05:23:25;;;;;;;5.10;2.80;;;;;;;;;;5090508;28;20496;-70
2021/05/31 05:25:53;;;;;;;4.37;2.80;;;;;;;;;;5091529;28;20455;-71
2021/05/31 05:28:20;;;;;;;4.30;3.17;;;;;;;;;;5090429;28;20473;-70
2021/05/31 05:30:49;;;;;;;4.03;2.50;;;10.70;1.00;;;;;;5091087;28;20448;-70
2021/05/31 05:33:16;;;;;;;6.30;3.10;;;11.80;1.00;;;;;;5090812;28;20531;-70
2021/05/31 05:35:45;;;;;;;3.93;3.17;;;11.90;1.00;;;;;;5091142;28;20917;-71
2021/05/31 05:38:32;;;;;;;3.83;2.90;;;11.90;1.00;;;;;;5090577;28;20808;-71
2021/05/31 05:41:16;;;;;;;3.50;2.50;;;12.00;1.00;;;;;;5091199;28;20476;-71
2021/05/31 05:43:51;;;;;;;4.50;2.90;;;12.00;99.90;;;;;;5091591;28;20796;-70
2021/05/31 05:46:37;;;;;;;3.37;2.93;;;12.10;99.90;;;;;;5090768;28;20464;-71
2021/05/31 05:49:04;;;;;;;5.80;3.80;;;12.30;99.90;;;;;;5090523;28;20983;-73
2021/05/31 05:51:30;;;;;;;3.57;3.03;;;12.40;99.90;;;;;;5090670;28;20861;-71
2021/05/31 05:53:59;;;;;;;4.00;2.80;;;12.50;91.60;;;;;;5090611;28;20560;-71
2021/05/31 05:56:28;;;;;;;3.83;2.60;;;12.70;1.00;;;;;;5090278;28;20444;-72
2021/05/31 05:58:56;;;;;;;2.90;2.23;;;12.90;1.00;;;;;;5090668;28;20484;-71
2021/05/31 06:01:23;;;;;;;2.90;2.50;;;12.90;1.00;;;;;;5090441;28;20512;-71
2021/05/31 06:03:51;;;;;;;6.93;3.40;;;13.10;1.00;;;;;;5090949;28;20506;-71
2021/05/31 06:06:18;;;;;;;3.77;3.10;;;;;;;;;;5090627;28;20452;-71
2021/05/31 06:08:45;;;;;;;3.53;2.77;;;;;;;;;;5090668;28;20440;-69
2021/05/31 06:11:12;;;;;;;4.60;3.00;;;;;;;;;;5090766;28;20454;-71
2021/05/31 06:13:42;;;;;;;5.70;3.30;;;;;;;;;;5090987;28;20862;-71
2021/05/31 06:16:10;;;;;;;4.70;2.83;;;;;;;;;;5093541;28;20808;-70
2021/05/31 06:18:37;;;;;;;3.70;3.00;;;;;;;;;;5094246;28;20535;-71
2021/05/31 06:21:03;;;;;;;6.50;3.60;;;;;;;;;;5094822;28;20594;-72
2021/05/31 06:23:30;;;;;;;5.83;3.40;;;;;;;;;;5093975;28;20917;-72
2021/05/31 06:25:57;;;;;;;5.10;2.60;;;;;;;;;;5094739;28;20443;-71
2021/05/31 06:28:23;;;;;;;4.33;3.00;;;;;;;;;;5093307;28;20432;-71
2021/05/31 06:30:52;;;;;;;5.27;3.50;;;;;;;;;;5094952;28;20456;-71
2021/05/31 06:33:19;;;;;;;7.33;3.73;;;;;;;;;;5093657;28;20456;-71
2021/05/31 06:35:46;;;;;;;5.03;3.70;;;;;;;;;;5094710;28;20480;-71
2021/05/31 06:38:13;;;;;;;4.37;3.47;;;;;;;;;;5093828;28;20451;-71
2021/05/31 06:40:39;;;;;;;11.27;3.83;;;;;;;;;;5094640;28;20472;-71
2021/05/31 06:43:07;;;;;;;4.77;3.67;;;;;;;;;;5094413;28;20509;-72
2021/05/31 06:45:34;;;;;;;5.90;4.00;;;;;;;;;;5094307;28;20436;-72
2021/05/31 06:48:02;;;;;;;8.03;3.80;;;;;;;;;;5093627;28;20978;-72
2021/05/31 06:50:30;;;;;;;5.27;3.63;;;;;;;;;;5093866;28;20774;-72
2021/05/31 06:52:57;;;;;;;5.57;3.73;;;;;;;;;;5093961;28;20539;-71
2021/05/31 06:55:25;;;;;;;6.30;3.33;;;;;;;;;;5093896;28;20503;-71
2021/05/31 06:57:52;;;;;;;5.60;3.13;;;;;;;;;;5093843;28;20435;-72
2021/05/31 07:00:20;;;;;;;4.20;2.60;;;;;;;;;;5093735;28;20489;-71
2021/05/31 07:02:46;;;;;;;4.47;3.17;;;;;;;;;;5094524;28;20524;-71
2021/05/31 07:05:15;;;;;;;5.20;2.60;;;;;;;;;;5093653;28;20487;-72
2021/05/31 07:07:42;;;;;;;4.83;3.00;;;;;;;;;;5094153;28;20436;-72
2021/05/31 07:10:11;;;;;;;3.00;2.70;;;13.30;1.00;;;;;;5094187;28;20441;-68
2021/05/31 07:12:37;;;;;;;6.07;3.27;;;15.40;99.90;;;;;;5094843;28;21317;-71
2021/05/31 07:15:05;;;;;;;3.00;2.70;;;15.40;99.90;;;;;;5094626;28;20447;-75
2021/05/31 07:17:33;;;;;;;2.67;2.47;;;15.40;99.90;;;;;;5099509;28;20496;-71
2021/05/31 07:20:00;;;;;;;3.97;2.60;;;15.40;99.90;;;;;;5107377;28;20444;-72
2021/05/31 07:22:28;;;;;;;3.50;2.30;;;;;;;;;;5106572;28;20496;-71
2021/05/31 07:24:55;;;;;;;3.30;2.40;;;;;;;;;;5107565;28;20539;-72
2021/05/31 07:27:22;;;;;;;4.50;2.53;;;;;;;;;;5105040;28;20485;-72
2021/05/31 07:29:48;;;;;;;2.53;2.00;;;;;;;;;;5105003;28;20455;-72
2021/05/31 07:32:16;;;;;;;2.17;1.97;;;;;;;;;;5104683;28;20500;-71
2021/05/31 07:34:43;;;;;;;4.00;2.73;;;;;;;;;;5103571;28;20437;-72
2021/05/31 07:37:10;;;;;;;3.00;1.90;;;;;;;;;;5099965;28;20986;-71
2021/05/31 07:39:38;;;;;;;2.53;1.80;;;;;;;;;;5099525;28;20487;-73
2021/05/31 07:42:05;;;;;;;2.10;2.00;;;;;;;;;;5095387;28;20506;-72
2021/05/31 07:44:32;;;;;;;5.37;2.30;;;;;;;;;;5092856;28;20441;-72
2021/05/31 07:46:59;;;;;;;1.87;1.77;;;;;;;;;;5093649;28;20440;-72
2021/05/31 07:49:25;;;;;;;2.90;2.50;;;;;;;;;;5092451;28;20439;-72
2021/05/31 07:51:54;;;;;;;3.47;2.60;;;;;;;;;;5093363;28;20556;-72
2021/05/31 07:54:23;;;;;;;3.10;2.00;;;;;;;;;;5092103;28;20512;-72
2021/05/31 07:56:51;;;;;;;2.00;1.80;;;;;;;;;;5092392;28;20853;-72
2021/05/31 07:59:18;;;;;;;3.00;2.33;;;;;;;;;;5092050;28;20478;-72
2021/05/31 08:01:44;;;;;;;2.40;2.07;;;;;;;;;;5093139;28;20567;-71
2021/05/31 08:04:11;;;;;;;3.30;2.20;;;;;;;;;;5092547;28;20448;-72
2021/05/31 08:06:38;;;;;;;3.00;2.27;;;;;;;;;;5092565;28;20441;-72
2021/05/31 08:09:05;;;;;;;2.43;2.23;;;;;;;;;;5092499;28;20441;-72
2021/05/31 08:11:32;;;;;;;2.40;2.20;;;;;;;;;;5091805;28;20444;-72
2021/05/31 08:14:00;;;;;;;4.67;2.27;;;;;;;;;;5092595;28;20535;-72
2021/05/31 08:16:27;;;;;;;3.47;2.37;;;;;;;;;;5091999;28;20440;-72
2021/05/31 08:18:53;;;;;;;3.37;2.40;;;;;;;;;;5091948;28;20581;-72
2021/05/31 08:21:20;;;;;;;1.90;1.80;;;;;;;;;;5091940;28;20560;-72
2021/05/31 08:23:47;;;;;;;3.60;2.00;;;;;;;;;;5092108;28;21020;-73
2021/05/31 08:26:17;;;;;;;2.90;2.30;;;;;;;;;;5092174;28;20455;-72
2021/05/31 08:28:44;;;;;;;2.27;2.00;;;;;;;;;;5091852;28;20912;-71
2021/05/31 08:31:12;;;;;;;4.47;3.60;;;;;;;;;;5091558;28;20459;-72
2021/05/31 08:33:38;;;;;;;3.17;2.23;;;;;;;;;;5092057;28;20519;-71
2021/05/31 08:36:06;;;;;;;3.07;2.77;;;;;;;;;;5092365;28;20887;-72
2021/05/31 08:38:33;;;;;;;2.77;2.43;;;;;;;;;;5090986;28;20448;-72
2021/05/31 08:40:59;;;;;;;3.13;2.23;;;;;;;;;;5091974;28;20563;-71
2021/05/31 08:43:26;;;;;;;1.93;1.80;;;;;;;;;;5091662;28;20528;-72
2021/05/31 08:45:54;;;;;;;3.90;2.17;;;;;;;;;;5091657;28;20527;-72
2021/05/31 08:48:22;;;;;;;3.53;2.40;;;;;;;;;;5090863;28;20536;-73
2021/05/31 08:50:49;;;;;;;2.50;2.00;;;;;;;;;;5091662;28;20456;-72
2021/05/31 08:53:16;;;;;;;2.40;2.10;;;;;;;;;;5091485;28;20534;-72
2021/05/31 08:55:43;;;;;;;2.13;1.93;;;;;;;;;;5092024;28;20488;-72
2021/05/31 08:58:10;;;;;;;2.17;2.00;;;;;;;;;;5091269;28;20523;-71
2021/05/31 09:00:37;;;;;;;2.33;1.80;;;;;;;;;;5091436;28;20440;-72
2021/05/31 09:03:05;;;;;;;2.03;1.87;;;;;;;;;;5091812;28;20472;-72
2021/05/31 09:05:34;;;;;;;1.97;1.87;;;;;;;;;;5090908;28;20939;-72
2021/05/31 09:08:08;;;;;;;4.07;2.20;;;;;;;;;;5091221;28;20928;-72
2021/05/31 09:10:44;;;;;;;2.90;1.80;;;;;;;;;;5091511;28;20448;-71
2021/05/31 09:13:11;;;;;;;2.03;1.83;;;;;;;;;;5091083;28;20916;-71
2021/05/31 09:15:43;;;;;;;4.80;2.20;;;;;;;;;;5091766;28;20443;-71
2021/05/31 09:18:10;;;;;;;2.33;2.13;;;;;;;;;;5090483;28;20917;-71
2021/05/31 09:20:38;;;;;;;2.70;1.80;;;;;;;;;;5091483;28;20447;-72
2021/05/31 09:23:05;;;;;;;5.13;1.97;;;;;;;;;;5091710;28;20970;-71
2021/05/31 09:25:33;;;;;;;2.80;2.10;;;;;;;;;;5090840;28;20528;-71
2021/05/31 09:28:00;;;;;;;2.80;1.77;;;;;;;;;;5091119;28;20540;-74
2021/05/31 09:30:35;;;;;;;2.83;1.60;;;;;;;;;;5090997;28;20476;-73
2021/05/31 09:33:02;;;;;;;1.67;1.57;;;;;;;;;;5091506;28;20436;-73
2021/05/31 09:35:28;;;;;;;3.67;2.30;;;;;;;;;;5090851;28;20448;-73
2021/05/31 09:38:00;;;;;;;1.93;1.73;;;;;;;;;;5090975;28;20439;-73
2021/05/31 09:40:27;;;;;;;4.43;2.30;;;;;;;;;;5090900;28;20444;-73
2021/05/31 09:42:54;;;;;;;2.97;2.20;;;;;;;;;;5090798;28;20484;-73
2021/05/31 09:45:21;;;;;;;2.70;1.73;;;;;;;;;;5090384;28;21008;-73
2021/05/31 09:47:48;;;;;;;3.60;2.10;;;;;;;;;;5090743;28;20445;-72
2021/05/31 09:50:21;;;;;;;4.30;2.10;;;;;;;;;;5092382;28;20478;-72
2021/05/31 09:52:48;;;;;;;3.53;1.87;;;;;;;;;;5095617;28;20495;-74
2021/05/31 09:55:16;;;;;;;2.63;1.90;;;;;;;;;;5094478;28;20944;-73
2021/05/31 09:57:43;;;;;;;2.70;2.20;;;;;;;;;;5094947;28;20444;-73
2021/05/31 10:00:13;;;;;;;2.97;1.80;;;;;;;;;;5094126;28;20959;-73
2021/05/31 10:02:47;;;;;;;4.93;2.13;;;;;;;;;;5094679;28;20515;-73
2021/05/31 10:05:27;;;;;;;2.20;1.93;;;;;;;;;;5094910;28;20440;-73
2021/05/31 10:07:56;;;;;;;2.23;1.83;;;;;;;;;;5094746;28;20479;-74
2021/05/31 10:10:25;;;;;;;2.27;2.07;;;;;;;;;;5094192;28;20993;-73
2021/05/31 10:12:51;;;;;;;2.63;1.87;;;;;;;;;;5095024;28;20455;-73
2021/05/31 10:15:19;;;;;;;3.47;2.57;;;;;;;;;;5093885;28;20897;-73
2021/05/31 10:17:47;;;;;;;2.20;2.00;;;;;;;;;;5094457;28;20448;-73
2021/05/31 10:20:14;;;;;;;3.73;2.10;;;;;;;;;;5094631;28;20436;-74
2021/05/31 10:22:41;;;;;;;2.37;2.17;;;;;;;;;;5094733;28;20496;-73
2021/05/31 10:25:10;;;;;;;4.97;2.00;;;;;;;;;;5094355;28;20534;-69
2021/05/31 10:27:40;;;;;;;3.33;1.90;;;;;;;;;;5094138;28;20459;-73
2021/05/31 10:30:08;;;;;;;2.87;2.17;;;;;;;;;;5094291;28;20445;-74
2021/05/31 10:32:35;;;;;;;4.50;2.23;;;;;;;;;;5094605;28;20488;-74
2021/05/31 10:35:01;;;;;;;4.00;2.50;;;;;;;;;;5094876;28;20983;-74
2021/05/31 10:37:29;;;;;;;2.10;1.87;;;;;;;;;;5093163;28;20563;-74
2021/05/31 10:40:03;;;;;;;2.10;2.00;;;;;;;;;;5094614;28;20529;-74
2021/05/31 10:42:45;;;;;;;2.10;1.90;;;;;;;;;;5093680;28;20518;-73
2021/05/31 10:45:29;;;;;;;2.60;1.97;;;;;;;;;;5094115;28;20801;-73
2021/05/31 10:48:01;;;;;;;3.40;1.90;;;;;;;;;;5094382;28;20516;-74
2021/05/31 10:50:31;;;;;;;2.70;2.50;;;;;;;;;;5094183;28;20480;-75
2021/05/31 10:52:58;;;;;;;2.63;2.43;;;;;;;;;;5103917;28;20488;-72
2021/05/31 10:55:26;;;;;;;1.90;1.80;;;;;;;;;;5094317;28;20896;-72
2021/05/31 10:57:55;;;;;;;2.40;2.20;;;;;;;;;;5093935;28;20474;-72
2021/05/31 11:00:23;;;;;;;7.53;5.07;;;;;;;;;;5093351;28;20870;-72
2021/05/31 11:02:49;;;;;;;4.53;4.13;;;;;;;;;;5093524;28;20522;-71
2021/05/31 11:05:16;;;;;;;3.73;3.43;;;;;;;;;;5093333;28;20527;-72
2021/05/31 11:07:43;;;;;;;3.50;3.13;;;;;;;;;;5093672;28;20448;-72
2021/05/31 11:10:14;;;;;;;3.40;2.63;;;;;;;;;;5093184;28;20527;-71
2021/05/31 11:12:41;;;;;;;2.37;2.13;;;;;;;;;;5093790;28;20440;-72
2021/05/31 11:15:10;;;;;;;2.80;2.30;;;;;;;;;;5093694;28;20448;-72
2021/05/31 11:17:56;;;;;;;3.00;1.93;;;;;;;;;;5093387;28;20457;-71
2021/05/31 11:20:23;;;;;;;2.13;1.93;;;;;;;;;;5093115;28;20437;-71
2021/05/31 11:22:54;;;;;;;4.93;2.67;;;;;;;;;;5093643;28;20587;-71
2021/05/31 11:25:22;;;;;;;4.23;2.20;;;;;;;;;;5092403;28;20452;-73
2021/05/31 11:27:53;;;;;;;2.43;2.23;;;;;;;;;;5092811;28;20449;-71
2021/05/31 11:30:24;;;;;;;2.50;2.20;;;;;;;;;;5092801;28;20452;-73
2021/05/31 11:32:50;;;;;;;2.00;1.90;;;;;;;;;;5093087;28;20989;-72
2021/05/31 11:35:17;;;;;;;7.27;2.60;;;;;;;;;;5092715;28;20445;-72
2021/05/31 11:37:46;;;;;;;3.10;2.00;;;;;;;;;;5092658;28;20450;-72
2021/05/31 11:40:17;;;;;;;2.70;2.40;;;;;;;;;;5092854;28;20531;-72
2021/05/31 11:42:44;;;;;;;2.50;2.17;;;;;;;;;;5093140;28;20480;-72
2021/05/31 11:45:12;;;;;;;2.37;2.07;;;;;;;;;;5092684;28;20469;-71
2021/05/31 11:47:40;;;;;;;3.00;2.20;;;;;;;;;;5092660;28;20479;-71
2021/05/31 11:50:07;;;;;;;2.67;1.87;;;;;;;;;;5092792;28;20952;-72
2021/05/31 11:52:34;;;;;;;4.00;2.30;;;;;;;;;;5092674;28;20901;-71
2021/05/31 11:55:01;;;;;;;2.37;1.70;;;;;;;;;;5093050;28;20475;-72
2021/05/31 11:57:28;;;;;;;3.83;2.73;;;;;;;;;;5091502;28;21132;-71
2021/05/31 11:59:55;;;;;;;1.93;1.80;;;;;;;;;;5092643;28;20454;-71
2021/05/31 12:02:23;;;;;;;2.97;1.47;;;;;;;;;;5092066;28;20480;-71
2021/05/31 12:04:52;;;;;;;3.10;2.00;;;;;;;;;;5092358;28;20441;-71
2021/05/31 12:07:22;;;;;;;2.43;2.00;;;;;;;;;;5091591;28;20446;-71
2021/05/31 12:09:48;;;;;;;2.40;2.20;;;;;;;;;;5092646;28;20449;-71
2021/05/31 12:12:16;;;;;;;2.47;2.20;;;;;;;;;;5090975;28;20448;-71
2021/05/31 12:14:43;;;;;;;3.30;2.20;;;;;;;;;;5092752;28;20444;-71
2021/05/31 12:17:11;;;;;;;3.00;2.40;;;;;;;;;;5091520;28;20448;-70
2021/05/31 12:19:38;;;;;;;3.07;2.50;;;;;;;;;;5092457;28;20444;-71
2021/05/31 12:22:06;;;;;;;2.30;2.07;;;;;;;;;;5092410;28;20500;-71
2021/05/31 12:24:33;;;;;;;3.00;2.00;;;;;;;;;;5091521;28;20996;-71
2021/05/31 12:27:01;;;;;;;3.07;1.87;;;;;;;;;;5092412;28;20844;-71
2021/05/31 12:29:34;;;;;;;2.00;1.90;;;;;;;;;;5091312;28;20792;-71
2021/05/31 12:32:03;;;;;;;1.83;1.70;;;;;;;;;;5092087;28;20532;-71
2021/05/31 12:34:29;;;;;;;2.93;1.57;;;;;;;;;;5091630;28;20445;-71
2021/05/31 12:36:56;;;;;;;2.53;1.90;;;;;;;;;;5091825;28;20480;-71
2021/05/31 12:39:25;;;;;;;2.40;2.20;;;;;;;;;;5090815;28;21008;-71
2021/05/31 12:41:51;;;;;;;3.93;2.13;;;;;;;;;;5091909;28;20618;-72
2021/05/31 12:44:18;;;;;;;2.17;1.63;;;;;;;;;;5091466;28;20523;-71
2021/05/31 12:46:45;;;;;;;1.83;1.63;;;;;;;;;;5091624;28;20477;-70
2021/05/31 12:49:14;;;;;;;1.90;1.80;;;;;;;;;;5091076;28;20449;-71
2021/05/31 12:51:51;;;;;;;2.20;2.00;;;;;;;;;;5091440;28;20513;-71
2021/05/31 12:54:18;;;;;;;2.33;2.00;;;;;;;;;;5090586;28;20570;-71
2021/05/31 12:56:46;;;;;;;2.47;2.00;;;;;;;;;;5091635;28;20464;-70
2021/05/31 12:59:13;;;;;;;2.23;1.70;;;;;;;;;;5090803;28;20531;-71
2021/05/31 13:01:43;;;;;;;2.70;2.50;;;;;;;;;;5091736;28;20563;-71
2021/05/31 13:04:09;;;;;;;2.40;2.20;;;;;;;;;;5090900;28;20854;-70
2021/05/31 13:06:37;;;;;;;3.00;2.50;;;;;;;;;;5091630;28;20795;-71
2021/05/31 13:09:04;;;;;;;2.30;2.10;;;;;;;;;;5090772;28;20487;-71
2021/05/31 13:11:41;;;;;;;2.67;2.47;;;;;;;;;;5091056;28;20456;-71
2021/05/31 13:14:19;;;;;;;2.60;2.40;;;;;;;;;;5091220;28;20960;-71
2021/05/31 13:16:55;;;;;;;2.27;2.07;;;;;;;;;;5091015;28;20447;-70
2021/05/31 13:19:22;;;;;;;2.83;1.97;;;;;;;;;;5090525;28;20451;-71
2021/05/31 13:21:56;;;;;;;1.87;1.77;;;;;;;;;;5090784;28;20993;-71
2021/05/31 13:24:23;;;;;;;1.90;1.80;;;;;;;;;;5089515;28;20470;-72
2021/05/31 13:26:50;;;;;;;2.10;1.93;;;;;;;;;;5091121;28;20444;-72
2021/05/31 13:29:22;;;;;;;2.33;1.93;;;;;;;;;;5090235;28;20532;-71
2021/05/31 13:31:49;;;;;;;2.80;1.80;;;;;;;;;;5091278;28;20472;-71
2021/05/31 13:34:15;;;;;;;4.70;3.80;;;;;;;;;;5090552;28;20531;-70
2021/05/31 13:36:42;;;;;;;2.30;2.10;;;;;;;;;;5091112;28;20539;-71
2021/05/31 13:39:10;;;;;;;4.30;2.80;;;;;;;;;;5090477;28;20528;-69
2021/05/31 13:41:37;;;;;;;2.43;2.07;;;;;;;;;;5091135;28;20854;-71
2021/05/31 13:44:08;;;;;;;3.33;2.30;;;;;;;;;;5091281;28;20641;-71
2021/05/31 13:46:37;;;;;;;2.53;1.97;;;;;;;;;;5091276;28;20478;-71
2021/05/31 13:49:04;;;;;;;5.50;2.60;;;;;;;;;;5090509;28;20448;-72
2021/05/31 13:51:30;;;;;;;2.07;1.90;;;;;;;;;;5090198;28;20960;-72
2021/05/31 13:53:57;;;;;;;2.17;1.97;;;;;;;;;;5091156;28;20479;-72
2021/05/31 13:56:24;;;;;;;3.57;2.10;;;;;;;;;;5090557;28;20437;-72
2021/05/31 13:58:50;;;;;;;2.30;2.10;;;;;;;;;;5090442;28;20455;-73
2021/05/31 14:01:17;;;;;;;2.80;2.17;;;;;;;;;;5090476;28;20448;-72
2021/05/31 14:03:45;;;;;;;2.50;2.30;;;;;;;;;;5091453;28;20449;-72
2021/05/31 14:06:12;;;;;;;3.73;2.63;;;;;;;;;;5090441;28;20976;-72
2021/05/31 14:08:38;;;;;;;2.53;1.83;;;;;;;;;;5090166;28;20954;-72
2021/05/31 14:11:05;;;;;;;2.23;1.80;;;;;;;;;;5090678;28;20851;-71
2021/05/31 14:13:32;;;;;;;2.50;1.97;;;;;;;;;;5090071;28;20932;-71
2021/05/31 14:15:58;;;;;;;2.63;2.43;;;;;;;;;;5090917;28;21023;-71
2021/05/31 14:18:25;;;;;;;3.10;2.10;;;;;;;;;;5089909;28;20471;-71
2021/05/31 14:20:53;;;;;;;2.40;2.20;;;;;;;;;;5090917;28;20247;-72